Time;durP1;ratioP1;P1;durP2;ratioP2;P2;SDS_P1;SDS_P2;PMS_P1;PMS_P2;Temp;Humidity;BMP_temperature;BMP_pressure;BME280_temperature;BME280_humidity;BME280_pressure;Samples;Min_cycle;Max_cycle;Signal;HPM_P1;HPM_P2
2022/04/02 00:00:00;;;;;;;24.15;13.13;;;;;;;0.37;100.00;96879.47;4378935;32;20164;-70
2022/04/02 00:02:38;;;;;;;24.12;11.68;;;;;;;0.38;100.00;96879.34;4378966;32;20083;-70
2022/04/02 00:05:05;;;;;;;26.80;13.68;;;;;;;0.51;100.00;96884.34;4378799;32;20079;-70
2022/04/02 00:07:32;;;;;;;32.50;13.93;;;;;;;0.42;100.00;96885.88;4379080;32;20103;-70
2022/04/02 00:10:00;;;;;;;23.38;12.37;;;;;;;0.31;100.00;96891.87;4378731;32;20094;-70
2022/04/02 00:12:27;;;;;;;27.90;13.23;;;;;;;0.23;100.00;96888.25;4379069;32;20086;-70
2022/04/02 00:14:54;;;;;;;23.95;13.90;;;;;;;0.35;100.00;96895.84;4378579;32;20109;-70
2022/04/02 00:17:21;;;;;;;23.23;12.27;;;;;;;0.36;100.00;96906.97;4379022;32;20160;-70
2022/04/02 00:19:49;;;;;;;20.00;11.23;;;;;;;0.37;100.00;96910.38;4377521;32;20149;-70
2022/04/02 00:22:16;;;;;;;22.00;11.95;;;;;;;0.32;100.00;96896.09;4378660;32;20195;-70
2022/04/02 00:24:43;;;;;;;22.08;11.57;;;;;;;0.34;100.00;96891.63;4378372;32;20087;-70
2022/04/02 00:27:11;;;;;;;29.33;12.73;;;;;;;0.10;100.00;96884.03;4378889;32;20140;-70
2022/04/02 00:29:40;;;;;;;31.83;14.68;;;;;;;0.14;100.00;96874.34;4378354;32;20099;-70
2022/04/02 00:32:08;;;;;;;24.67;12.00;;;;;;;0.26;100.00;96870.81;4378726;32;20385;-70
2022/04/02 00:34:36;;;;;;;21.87;12.07;;;;;;;0.27;100.00;96871.62;4378343;32;20494;-70
2022/04/02 00:37:04;;;;;;;29.55;14.70;;;;;;;0.38;100.00;96856.16;4365136;32;20099;-70
2022/04/02 00:39:31;;;;;;;21.15;11.23;;;;;;;0.04;100.00;96855.41;4378361;32;20103;-70
2022/04/02 00:41:59;;;;;;;20.98;10.52;;;;;;;0.12;100.00;96841.00;4378337;32;20086;-70
2022/04/02 00:44:26;;;;;;;25.27;11.63;;;;;;;0.12;100.00;96835.84;4378390;32;20389;-70
2022/04/02 00:46:54;;;;;;;23.70;10.95;;;;;;;0.02;100.00;96834.94;4378566;32;20099;-69
2022/04/02 00:49:22;;;;;;;22.58;11.23;;;;;;;-0.01;100.00;96835.16;4378533;32;20098;-70
2022/04/02 00:51:50;;;;;;;24.67;11.23;;;;;;;0.02;100.00;96844.41;4380267;32;20091;-69
2022/04/02 00:54:19;;;;;;;19.95;10.77;;;;;;;-0.01;100.00;96845.47;4380475;32;20079;-70
2022/04/02 00:56:47;;;;;;;30.77;13.00;;;;;;;-0.03;100.00;96847.31;4380551;32;20129;-70
2022/04/02 00:59:15;;;;;;;26.35;13.88;;;;;;;-0.17;100.00;96848.38;4380504;32;20178;-70
2022/04/02 01:01:44;;;;;;;25.98;12.63;;;;;;;-0.08;100.00;96839.94;4380500;32;20115;-70
2022/04/02 01:04:12;;;;;;;18.67;10.05;;;;;;;0.01;100.00;96846.16;4380138;32;20142;-69
2022/04/02 01:06:41;;;;;;;17.00;10.27;;;;;;;-0.15;100.00;96843.13;4380454;32;20437;-70
2022/04/02 01:09:11;;;;;;;24.85;10.27;;;;;;;-0.16;100.00;96837.16;4380319;32;20086;-70
2022/04/02 01:11:43;;;;;;;21.08;10.52;;;;;;;-0.15;100.00;96843.94;4380078;32;20075;-70
2022/04/02 01:14:11;;;;;;;23.95;12.48;;;;;;;-0.22;100.00;96860.78;4380149;32;20105;-70
2022/04/02 01:16:39;;;;;;;16.80;10.25;;;;;;;-0.25;100.00;96866.97;4380323;32;20095;-70
2022/04/02 01:19:07;;;;;;;21.77;11.35;;;;;;;-0.21;100.00;96876.13;4380065;32;20429;-70
2022/04/02 01:21:36;;;;;;;22.45;11.45;;;;;;;-0.09;100.00;96879.50;4380258;32;20094;-70
2022/04/02 01:24:06;;;;;;;23.00;11.95;;;;;;;-0.09;100.00;96888.97;4380070;32;20107;-70
2022/04/02 01:26:33;;;;;;;27.37;13.50;;;;;;;-0.15;100.00;96899.72;4380062;32;20117;-70
2022/04/02 01:29:01;;;;;;;22.73;12.48;;;;;;;-0.23;100.00;96908.88;4380209;32;20125;-70
2022/04/02 01:31:29;;;;;;;21.40;11.70;;;;;;;-0.24;100.00;96909.00;4379961;32;20574;-70
2022/04/02 01:33:57;;;;;;;23.45;12.02;;;;;;;-0.26;100.00;96916.81;4380255;32;20094;-70
2022/04/02 01:36:25;;;;;;;24.67;12.27;;;;;;;-0.21;100.00;96922.44;4380212;32;20107;-70
2022/04/02 01:38:54;;;;;;;19.80;10.90;;;;;;;-0.14;100.00;96921.97;4380216;32;20162;-70
2022/04/02 01:41:24;;;;;;;22.98;11.48;;;;;;;-0.36;100.00;96913.28;4380170;32;20082;-70
2022/04/02 01:43:51;;;;;;;20.40;11.23;;;;;;;-0.26;100.00;96916.81;4379851;32;20155;-70
2022/04/02 01:46:19;;;;;;;28.00;13.90;;;;;;;-0.29;100.00;96909.31;4379959;32;20110;-70
2022/04/02 01:48:46;;;;;;;20.95;11.63;;;;;;;-0.16;100.00;96913.56;4380214;32;20197;-70
2022/04/02 01:51:13;;;;;;;21.12;11.18;;;;;;;-0.25;100.00;96913.28;4380130;32;20109;-70
2022/04/02 01:53:41;;;;;;;20.70;10.57;;;;;;;-0.20;100.00;96921.50;4379926;32;20090;-70
2022/04/02 01:56:09;;;;;;;20.60;11.52;;;;;;;-0.40;100.00;96914.44;4380126;32;20116;-70
2022/04/02 01:58:37;;;;;;;21.27;11.50;;;;;;;-0.29;100.00;96916.22;4380214;32;20176;-70
2022/04/02 02:01:06;;;;;;;21.17;11.00;;;;;;;-0.39;100.00;96903.25;4379703;32;20087;-70
2022/04/02 02:03:34;;;;;;;20.05;11.57;;;;;;;-0.54;100.00;96906.00;4379932;32;20087;-70
2022/04/02 02:06:01;;;;;;;20.12;11.43;;;;;;;-0.41;100.00;96905.09;4379863;32;20098;-70
2022/04/02 02:08:29;;;;;;;17.40;10.00;;;;;;;-0.45;100.00;96924.28;4379760;32;20121;-70
2022/04/02 02:10:57;;;;;;;17.27;9.38;;;;;;;-0.49;100.00;96925.44;4366646;32;20167;-70
2022/04/02 02:13:25;;;;;;;19.83;10.07;;;;;;;-0.40;100.00;96924.75;4379965;32;20139;-70
2022/04/02 02:15:52;;;;;;;20.17;10.95;;;;;;;-0.41;100.00;96934.22;4380000;32;20106;-70
2022/04/02 02:18:20;;;;;;;19.92;10.60;;;;;;;-0.50;100.00;96932.34;4379514;32;20161;-70
2022/04/02 02:20:47;;;;;;;17.98;9.23;;;;;;;-0.45;100.00;96937.13;4379544;32;20539;-70
2022/04/02 02:23:14;;;;;;;25.45;12.40;;;;;;;-0.51;100.00;96940.16;4379756;32;20437;-70
2022/04/02 02:25:42;;;;;;;23.60;11.25;;;;;;;-0.57;100.00;96941.44;4379464;32;20481;-70
2022/04/02 02:28:09;;;;;;;21.83;11.68;;;;;;;-0.51;100.00;96938.41;4379639;32;20125;-70
2022/04/02 02:30:37;;;;;;;20.85;10.95;;;;;;;-0.40;100.00;96942.75;4379547;32;20446;-70
2022/04/02 02:35:50;;;;;;;23.85;11.30;;;;;;;-0.77;100.00;96940.31;4379951;32;20116;-70
2022/04/02 02:38:22;;;;;;;15.73;8.70;;;;;;;-0.61;100.00;96938.25;4379897;32;20156;-70
2022/04/02 02:40:52;;;;;;;20.88;9.63;;;;;;;-0.52;100.00;96930.81;4379872;32;20091;-70
2022/04/02 02:43:20;;;;;;;20.17;11.05;;;;;;;-0.51;100.00;96932.44;4379845;32;20101;-70
2022/04/02 02:45:48;;;;;;;14.77;9.18;;;;;;;-0.47;100.00;96926.12;4379543;32;20412;-70
2022/04/02 02:48:16;;;;;;;17.20;9.55;;;;;;;-0.57;100.00;96933.72;4366463;32;20136;-70
2022/04/02 02:50:44;;;;;;;19.70;10.95;;;;;;;-0.56;100.00;96938.75;4379628;32;20091;-70
2022/04/02 02:53:12;;;;;;;17.60;9.23;;;;;;;-0.49;100.00;96941.66;4379895;32;20480;-70
2022/04/02 02:55:40;;;;;;;18.70;10.82;;;;;;;-0.60;100.00;96947.59;4379550;32;20102;-70
2022/04/02 02:58:10;;;;;;;19.40;10.80;;;;;;;-0.68;100.00;96949.94;4379510;32;20121;-70
2022/04/02 03:00:38;;;;;;;22.77;11.63;;;;;;;-0.52;100.00;96946.22;4379777;32;20074;-70
2022/04/02 03:03:06;;;;;;;21.83;10.65;;;;;;;-0.40;100.00;96945.31;4379534;32;20476;-70
2022/04/02 03:05:34;;;;;;;17.98;9.07;;;;;;;-0.44;100.00;96942.16;4379620;32;20098;-70
2022/04/02 03:08:02;;;;;;;18.98;11.18;;;;;;;-0.58;100.00;96942.34;4379377;32;20132;-70
2022/04/02 03:10:30;;;;;;;17.35;9.45;;;;;;;-0.82;100.00;96947.53;4379423;32;20103;-70
2022/04/02 03:12:59;;;;;;;18.98;9.85;;;;;;;-0.62;100.00;96954.63;4378664;32;20429;-70
2022/04/02 03:15:27;;;;;;;19.87;11.20;;;;;;;-0.69;100.00;96958.56;4379454;32;20086;-70
2022/04/02 03:18:04;;;;;;;22.23;11.00;;;;;;;-0.54;100.00;96957.44;4379638;32;20115;-70
2022/04/02 03:20:33;;;;;;;20.25;10.82;;;;;;;-0.52;100.00;96966.81;4379401;32;20087;-70
2022/04/02 03:23:00;;;;;;;23.38;10.85;;;;;;;-0.63;100.00;96959.87;4379115;32;20152;-70
2022/04/02 03:25:27;;;;;;;18.87;11.07;;;;;;;-0.64;100.00;96959.03;4379131;32;20094;-70
2022/04/02 03:27:55;;;;;;;24.15;11.40;;;;;;;-0.69;100.00;96966.28;4379460;32;20103;-70
2022/04/02 03:30:25;;;;;;;26.05;12.13;;;;;;;-0.63;100.00;96962.44;4379412;32;20468;-70
2022/04/02 03:32:54;;;;;;;18.98;9.93;;;;;;;-0.63;100.00;96963.25;4379249;32;20079;-70
2022/04/02 03:35:21;;;;;;;26.60;13.05;;;;;;;-0.58;100.00;96981.75;4379413;32;20103;-70
2022/04/02 03:37:50;;;;;;;18.15;10.98;;;;;;;-0.49;100.00;96974.28;4379256;32;20187;-70
2022/04/02 03:40:20;;;;;;;24.40;12.20;;;;;;;-0.48;100.00;96975.94;4379180;32;20153;-70
2022/04/02 03:42:48;;;;;;;21.60;10.63;;;;;;;-0.57;100.00;96973.09;4379486;32;20368;-70
2022/04/02 03:45:18;;;;;;;19.60;11.07;;;;;;;-0.61;100.00;96981.97;4379354;32;20408;-70
2022/04/02 03:47:47;;;;;;;21.33;11.65;;;;;;;-0.62;100.00;96977.78;4379313;32;20116;-70
2022/04/02 03:50:15;;;;;;;20.90;10.68;;;;;;;-0.65;100.00;96987.44;4379244;32;20159;-70
2022/04/02 03:52:43;;;;;;;20.33;12.15;;;;;;;-0.58;100.00;96976.59;4379018;32;20074;-70
2022/04/02 03:55:12;;;;;;;18.00;10.43;;;;;;;-0.74;100.00;96973.53;4379313;32;20439;-70
2022/04/02 03:57:41;;;;;;;20.55;11.02;;;;;;;-0.59;100.00;96969.00;4379355;32;20090;-70
2022/04/02 04:00:09;;;;;;;18.17;10.13;;;;;;;-0.42;100.00;96960.87;4379265;32;20575;-70
2022/04/02 04:02:39;;;;;;;21.52;10.70;;;;;;;-0.47;100.00;96964.72;4378922;32;20090;-70
2022/04/02 04:05:09;;;;;;;20.92;10.55;;;;;;;-0.56;100.00;96956.75;4379132;32;20087;-70
2022/04/02 04:07:37;;;;;;;20.30;10.70;;;;;;;-0.58;100.00;96956.03;4378863;32;20471;-70
2022/04/02 04:10:05;;;;;;;23.98;12.60;;;;;;;-0.54;100.00;96961.78;4379026;32;20086;-70
2022/04/02 04:12:34;;;;;;;23.80;11.65;;;;;;;-0.62;100.00;96949.47;4378872;32;20429;-70
2022/04/02 04:15:04;;;;;;;23.58;11.40;;;;;;;-0.66;100.00;96954.97;4378784;32;20185;-70
2022/04/02 04:17:32;;;;;;;17.83;10.00;;;;;;;-0.56;100.00;96955.91;4378930;32;20106;-70
2022/04/02 04:20:00;;;;;;;16.83;10.10;;;;;;;-0.57;100.00;96957.66;4378659;32;20177;-70
2022/04/02 04:22:28;;;;;;;17.70;9.57;;;;;;;-0.61;100.00;96955.44;4378882;32;20090;-70
2022/04/02 04:24:55;;;;;;;20.23;9.55;;;;;;;-0.54;100.00;96959.19;4380217;32;20106;-70
2022/04/02 04:27:23;;;;;;;14.82;9.27;;;;;;;-0.65;100.00;96966.87;4380515;32;20121;-70
2022/04/02 04:29:50;;;;;;;22.20;10.52;;;;;;;-0.58;100.00;96966.31;4380374;32;20091;-70
2022/04/02 04:32:17;;;;;;;26.12;12.30;;;;;;;-0.41;100.00;96972.81;4380522;32;20550;-70
2022/04/02 04:34:45;;;;;;;21.98;12.07;;;;;;;-0.51;100.00;96979.56;4380392;32;20102;-70
2022/04/02 04:37:12;;;;;;;19.05;10.77;;;;;;;-0.55;100.00;96976.38;4380412;32;20539;-70
2022/04/02 04:39:40;;;;;;;25.65;12.25;;;;;;;-0.32;100.00;96968.72;4380282;32;20416;-70
2022/04/02 04:42:09;;;;;;;22.02;10.88;;;;;;;-0.37;100.00;96976.78;4380643;32;20174;-70
2022/04/02 04:44:37;;;;;;;18.60;9.60;;;;;;;-0.36;100.00;96982.75;4380512;32;20095;-70
2022/04/02 04:47:05;;;;;;;21.12;11.43;;;;;;;-0.24;100.00;96981.84;4380456;32;20226;-70
2022/04/02 04:49:34;;;;;;;20.05;11.23;;;;;;;-0.32;100.00;96984.16;4380562;32;20473;-70
2022/04/02 04:52:03;;;;;;;23.42;11.35;;;;;;;-0.45;100.00;96986.00;4380452;32;20083;-70
2022/04/02 04:54:31;;;;;;;16.37;8.00;;;;;;;-0.51;100.00;96981.31;4380541;32;20102;-70
2022/04/02 04:56:59;;;;;;;16.73;9.35;;;;;;;-0.38;100.00;96972.59;4380296;32;20438;-70
2022/04/02 04:59:26;;;;;;;17.85;9.20;;;;;;;-0.35;100.00;96976.66;4380256;32;20095;-70
2022/04/02 05:01:54;;;;;;;20.02;9.43;;;;;;;-0.43;100.00;96977.22;4380355;32;20170;-70
2022/04/02 05:04:22;;;;;;;18.25;10.13;;;;;;;-0.42;100.00;96981.44;4380463;32;20178;-70
2022/04/02 05:06:49;;;;;;;17.60;9.05;;;;;;;-0.43;100.00;96979.78;4380509;32;20106;-70
2022/04/02 05:09:17;;;;;;;17.67;9.60;;;;;;;-0.30;100.00;96984.88;4380257;32;20090;-70
2022/04/02 05:11:45;;;;;;;22.92;11.43;;;;;;;-0.33;100.00;96979.12;4366911;32;20091;-70
2022/04/02 05:14:13;;;;;;;23.00;12.37;;;;;;;-0.44;100.00;96982.47;4380417;32;20124;-70
2022/04/02 05:16:41;;;;;;;23.15;11.20;;;;;;;-0.34;100.00;96988.59;4367151;32;20118;-70
2022/04/02 05:19:09;;;;;;;21.75;10.90;;;;;;;-0.32;100.00;96991.88;4380307;32;20154;-70
2022/04/02 05:21:37;;;;;;;23.38;11.45;;;;;;;-0.05;100.00;97006.22;4380356;32;20099;-70
2022/04/02 05:24:04;;;;;;;18.45;9.98;;;;;;;-0.15;100.00;97007.81;4379931;32;20471;-70
2022/04/02 05:26:33;;;;;;;13.90;7.90;;;;;;;-0.08;100.00;97009.00;4380194;32;20106;-70
2022/04/02 05:29:01;;;;;;;20.73;10.90;;;;;;;-0.10;100.00;97013.47;4380356;32;20153;-70
2022/04/02 05:31:28;;;;;;;19.23;9.07;;;;;;;0.07;100.00;97018.16;4379984;32;20087;-70
2022/04/02 05:33:56;;;;;;;17.83;10.57;;;;;;;0.10;100.00;97017.94;4379952;32;20094;-70
2022/04/02 05:36:23;;;;;;;17.20;10.05;;;;;;;0.09;100.00;97021.47;4379610;32;20120;-70
2022/04/02 05:38:51;;;;;;;20.92;8.93;;;;;;;-0.03;100.00;97019.78;4380272;32;20090;-70
2022/04/02 05:41:18;;;;;;;18.12;10.55;;;;;;;0.02;100.00;97019.47;4380302;32;20109;-70
2022/04/02 05:43:46;;;;;;;16.80;8.68;;;;;;;0.21;100.00;97009.38;4380051;32;20488;-70
2022/04/02 05:46:13;;;;;;;28.65;11.63;;;;;;;0.28;99.77;97017.50;4379977;32;20397;-70
2022/04/02 05:48:41;;;;;;;18.65;10.05;;;;;;;0.11;100.00;97014.44;4379864;32;20197;-70
2022/04/02 05:51:09;;;;;;;22.80;11.40;;;;;;;0.19;100.00;97018.19;4379726;32;20103;-70
2022/04/02 05:53:36;;;;;;;20.48;11.50;;;;;;;0.60;99.49;97019.38;4379986;32;20242;-70
2022/04/02 05:56:04;;;;;;;25.08;11.20;;;;;;;0.43;99.28;97018.91;4379848;32;20093;-70
2022/04/02 05:58:31;;;;;;;20.83;10.65;;;;;;;0.60;98.50;97024.53;4379918;32;20095;-70
2022/04/02 06:00:58;;;;;;;16.12;9.15;;;;;;;0.56;97.98;97012.81;4380174;32;20393;-70
2022/04/02 06:03:25;;;;;;;21.25;10.32;;;;;;;0.56;97.93;97017.94;4379818;32;20095;-70
2022/04/02 06:05:52;;;;;;;22.00;10.73;;;;;;;0.48;99.11;97023.69;4366321;32;20129;-70
2022/04/02 06:08:19;;;;;;;20.42;11.23;;;;;;;0.62;98.39;97023.47;4380050;32;20078;-70
2022/04/02 06:10:47;;;;;;;19.80;10.80;;;;;;;0.82;97.61;97021.94;4379572;32;20095;-70
2022/04/02 06:13:14;;;;;;;24.90;11.90;;;;;;;0.79;97.35;97032.47;4379704;32;20091;-70
2022/04/02 06:15:42;;;;;;;19.33;10.32;;;;;;;0.86;97.40;97031.06;4379796;32;20124;-70
2022/04/02 06:18:11;;;;;;;22.13;11.12;;;;;;;1.02;96.98;97033.25;4366386;32;20095;-70
2022/04/02 06:20:39;;;;;;;20.35;11.55;;;;;;;1.20;96.59;97033.56;4379703;32;20102;-70
2022/04/02 06:23:06;;;;;;;20.52;10.13;;;;;;;1.27;95.26;97041.63;4379599;32;20125;-70
2022/04/02 06:25:33;;;;;;;22.42;12.27;;;;;;;1.38;95.17;97035.63;4379711;32;20094;-70
2022/04/02 06:28:00;;;;;;;21.70;11.60;;;;;;;1.46;92.77;97035.81;4379818;32;20453;-70
2022/04/02 06:30:29;;;;;;;23.12;11.43;;;;;;;1.39;92.92;97042.41;4379640;32;20153;-70
2022/04/02 06:32:56;;;;;;;22.02;11.40;;;;;;;1.75;93.29;97048.16;4379724;32;20087;-70
2022/04/02 06:35:24;;;;;;;22.73;11.38;;;;;;;1.66;91.57;97039.38;4379661;32;20117;-70
2022/04/02 06:37:53;;;;;;;27.60;10.70;;;;;;;1.75;91.80;97048.16;4379506;32;20158;-70
2022/04/02 06:40:23;;;;;;;17.48;9.73;;;;;;;1.77;91.35;97051.41;4379521;32;20094;-70
2022/04/02 06:42:51;;;;;;;19.42;10.48;;;;;;;2.13;90.88;97041.59;4379684;32;20099;-70
2022/04/02 06:45:21;;;;;;;17.52;9.63;;;;;;;2.26;90.29;97036.25;4379854;32;20094;-70
2022/04/02 06:47:50;;;;;;;18.62;10.32;;;;;;;2.27;89.58;97050.78;4378423;32;20079;-70
2022/04/02 06:50:18;;;;;;;19.73;10.07;;;;;;;2.20;90.24;97047.09;4379520;32;20480;-70
2022/04/02 06:52:45;;;;;;;17.67;10.15;;;;;;;2.42;90.27;97046.09;4379718;32;20106;-70
2022/04/02 06:55:15;;;;;;;14.68;9.20;;;;;;;2.52;89.97;97051.34;4379307;32;20157;-70
2022/04/02 06:57:51;;;;;;;18.87;11.23;;;;;;;2.76;88.83;97051.84;4379620;32;20448;-70
2022/04/02 07:00:21;;;;;;;20.88;11.32;;;;;;;2.99;86.79;97049.88;4365998;32;20172;-70
2022/04/02 07:02:48;;;;;;;19.25;11.05;;;;;;;2.55;87.40;97054.47;4379431;32;20516;-70
2022/04/02 07:05:16;;;;;;;16.58;10.50;;;;;;;2.65;88.63;97050.19;4379387;32;20476;-70
2022/04/02 07:07:44;;;;;;;19.33;10.27;;;;;;;2.29;89.12;97057.47;4379270;32;20125;-70
2022/04/02 07:10:13;;;;;;;15.07;8.20;;;;;;;2.47;87.39;97060.28;4379464;32;20091;-70
2022/04/02 07:12:40;;;;;;;17.10;9.55;;;;;;;2.84;85.34;97064.94;4379463;32;20098;-70
2022/04/02 07:15:09;;;;;;;19.58;10.18;;;;;;;3.01;84.89;97063.50;4379405;32;20117;-70
2022/04/02 07:17:36;;;;;;;16.77;9.77;;;;;;;3.10;84.90;97067.03;4379338;32;20163;-70
2022/04/02 07:20:06;;;;;;;19.02;9.32;;;;;;;3.29;84.65;97076.63;4379434;32;20087;-70
2022/04/02 07:22:37;;;;;;;19.10;9.82;;;;;;;3.30;83.58;97069.69;4379458;32;20142;-70
2022/04/02 07:25:05;;;;;;;12.95;6.85;;;;;;;3.46;81.75;97064.00;4379119;32;20086;-70
2022/04/02 07:27:34;;;;;;;16.05;9.73;;;;;;;3.44;80.79;97071.09;4365889;32;20214;-70
2022/04/02 07:30:02;;;;;;;10.35;6.95;;;;;;;3.21;81.86;97079.09;4379172;32;20158;-70
2022/04/02 07:32:30;;;;;;;15.55;8.07;;;;;;;3.19;81.42;97070.62;4379171;32;20519;-70
2022/04/02 07:34:57;;;;;;;15.40;8.82;;;;;;;3.54;81.47;97077.91;4379500;32;20098;-70
2022/04/02 07:37:46;;;;;;;14.73;7.90;;;;;;;3.57;81.54;97073.41;4379483;32;20514;-70
2022/04/02 07:40:22;;;;;;;15.18;9.05;;;;;;;3.56;81.23;97085.53;4379240;32;20087;-70
2022/04/02 07:43:21;;;;;;;16.85;8.90;;;;;;;3.68;81.70;97081.87;4379478;32;20090;-70
2022/04/02 07:45:55;;;;;;;14.55;9.25;;;;;;;3.55;82.93;97086.50;4379251;32;20074;-70
2022/04/02 07:48:24;;;;;;;12.30;7.53;;;;;;;3.66;82.34;97090.72;4379171;32;20109;-70
2022/04/02 07:50:51;;;;;;;16.10;8.18;;;;;;;3.29;82.40;97099.94;4365428;32;20075;-70
2022/04/02 07:53:23;;;;;;;12.63;7.95;;;;;;;3.32;84.17;97086.72;4379251;32;20156;-70
2022/04/02 07:56:03;;;;;;;18.00;9.20;;;;;;;3.71;82.15;97086.78;4378989;32;20114;-70
2022/04/02 07:58:32;;;;;;;18.30;9.27;;;;;;;3.55;81.05;97094.25;4378671;32;20425;-70
2022/04/02 08:01:03;;;;;;;15.27;9.38;;;;;;;3.75;80.99;97094.28;4379201;32;20404;-70
2022/04/02 08:03:31;;;;;;;13.88;8.15;;;;;;;3.36;81.08;97101.03;4379304;32;20117;-70
2022/04/02 08:05:58;;;;;;;11.90;7.35;;;;;;;3.49;81.45;97098.19;4378914;32;20142;-70
2022/04/02 08:08:26;;;;;;;13.80;6.62;;;;;;;3.71;80.20;97091.97;4378870;32;20087;-70
2022/04/02 08:10:53;;;;;;;16.37;8.70;;;;;;;4.17;79.53;97101.78;4378648;32;20110;-70
2022/04/02 08:13:22;;;;;;;17.55;9.10;;;;;;;4.09;80.11;97099.88;4378809;32;20102;-70
2022/04/02 08:15:54;;;;;;;14.57;8.38;;;;;;;4.12;80.12;97097.00;4379113;32;20101;-70
2022/04/02 08:18:28;;;;;;;11.12;6.78;;;;;;;4.18;79.15;97100.78;4378811;32;20099;-70
2022/04/02 08:20:55;;;;;;;12.80;7.62;;;;;;;4.11;79.75;97104.91;4378989;32;20089;-70
2022/04/02 08:23:24;;;;;;;13.00;7.47;;;;;;;4.32;78.08;97095.19;4378583;32;20103;-70
2022/04/02 08:26:02;;;;;;;15.38;7.47;;;;;;;4.37;78.79;97105.97;4378681;32;20140;-70
2022/04/02 08:28:54;;;;;;;11.75;7.00;;;;;;;4.36;79.51;97106.09;4378786;32;20078;-70
2022/04/02 08:31:51;;;;;;;13.40;8.35;;;;;;;4.66;76.95;97112.84;4378507;32;20223;-70
2022/04/02 08:34:35;;;;;;;15.77;7.30;;;;;;;4.70;78.41;97116.00;4346823;33;20162;-70
2022/04/02 08:37:26;;;;;;;14.95;7.68;;;;;;;4.78;76.52;97121.28;4334429;33;20130;-70
2022/04/02 08:40:25;;;;;;;14.52;7.28;;;;;;;4.88;75.69;97129.06;4346560;33;20115;-70
2022/04/02 08:43:02;;;;;;;17.52;8.75;;;;;;;5.43;74.28;97131.66;4302255;33;20598;-70
2022/04/02 08:45:32;;;;;;;15.48;8.73;;;;;;;5.22;74.64;97124.12;4302540;33;20112;-70
2022/04/02 08:48:24;;;;;;;15.02;8.30;;;;;;;5.74;74.39;97130.53;4302432;33;20136;-70
2022/04/02 08:51:12;;;;;;;14.23;8.68;;;;;;;5.86;72.67;97137.97;4302253;33;20230;-70
2022/04/02 08:53:56;;;;;;;12.52;7.22;;;;;;;6.25;72.93;97141.25;4302594;33;20130;-70
2022/04/02 08:56:26;;;;;;;14.68;8.93;;;;;;;5.95;73.45;97140.63;4302400;33;20490;-70
2022/04/02 08:59:00;;;;;;;14.07;7.93;;;;;;;5.94;73.11;97134.63;4302317;33;20149;-70
2022/04/02 09:01:30;;;;;;;13.82;7.60;;;;;;;5.49;73.97;97140.66;4302225;33;20127;-70
2022/04/02 09:04:30;;;;;;;14.25;7.68;;;;;;;5.38;72.69;97148.66;4290492;33;20504;-70
2022/04/02 09:07:24;;;;;;;12.98;7.03;;;;;;;5.66;72.63;97133.84;4290400;33;20290;-70
2022/04/02 09:10:22;;;;;;;14.70;7.40;;;;;;;5.51;74.15;97130.94;4302327;33;20649;-70
2022/04/02 09:13:21;;;;;;;13.60;7.65;;;;;;;5.71;73.33;97142.03;4333442;33;20096;-70
2022/04/02 09:16:01;;;;;;;16.10;8.60;;;;;;;5.97;72.80;97151.75;4304115;33;20092;-71
2022/04/02 09:19:06;;;;;;;14.10;7.93;;;;;;;6.33;71.21;97162.16;4308864;33;20172;-70
2022/04/02 09:21:56;;;;;;;14.20;8.75;;;;;;;6.19;68.46;97169.50;4333423;33;20112;-70
2022/04/02 09:24:26;;;;;;;16.85;8.35;;;;;;;5.96;70.62;97165.66;4333365;33;20175;-70
2022/04/02 09:27:15;;;;;;;12.45;7.60;;;;;;;6.02;70.97;97162.50;4333302;33;20576;-70
2022/04/02 09:30:06;;;;;;;14.68;7.57;;;;;;;6.39;71.36;97164.97;4333461;33;20500;-70
2022/04/02 09:32:56;;;;;;;14.43;7.35;;;;;;;5.75;70.97;97166.75;4333273;33;20410;-70
2022/04/02 09:35:34;;;;;;;15.00;8.82;;;;;;;6.02;72.87;97167.72;4333339;33;20176;-70
2022/04/02 09:38:38;;;;;;;13.75;8.27;;;;;;;6.48;71.25;97173.66;4333338;33;20465;-70
2022/04/02 09:41:18;;;;;;;13.75;7.18;;;;;;;6.63;69.18;97175.69;4333585;33;20177;-70
2022/04/02 09:44:12;;;;;;;15.20;7.18;;;;;;;6.73;68.88;97171.22;4333349;33;20091;-70
2022/04/02 09:46:54;;;;;;;13.60;7.90;;;;;;;7.03;67.71;97180.34;4333298;33;20088;-70
2022/04/02 09:49:33;;;;;;;13.80;7.50;;;;;;;6.48;69.97;97183.22;4333144;33;20427;-70
2022/04/02 09:52:06;;;;;;;13.15;7.50;;;;;;;6.07;69.25;97191.50;4340474;32;20177;-70
2022/04/02 09:54:44;;;;;;;12.50;7.62;;;;;;;6.05;69.77;97188.22;4379888;32;20087;-70
2022/04/02 09:57:33;;;;;;;14.15;7.35;;;;;;;5.77;70.63;97196.03;4366562;32;20109;-70
2022/04/02 10:00:00;;;;;;;16.10;8.63;;;;;;;5.51;73.49;97188.06;4379945;32;20083;-71
2022/04/02 10:03:11;;;;;;;15.60;8.82;;;;;;;5.46;74.12;97201.50;4379912;32;20162;-70
2022/04/02 10:05:42;;;;;;;14.75;8.52;;;;;;;5.86;73.29;97200.34;4379826;32;20090;-70
2022/04/02 10:08:54;;;;;;;12.20;6.45;;;;;;;5.98;71.24;97200.16;4379924;32;20101;-70
2022/04/02 10:11:27;;;;;;;14.25;7.55;;;;;;;6.24;70.22;97207.22;4333034;33;20199;-70
2022/04/02 10:13:59;;;;;;;13.15;6.35;;;;;;;5.67;72.03;97196.06;4333238;33;20111;-70
2022/04/02 10:16:27;;;;;;;14.13;7.53;;;;;;;5.91;71.47;97193.91;4333105;33;20203;-70
2022/04/02 10:18:57;;;;;;;12.00;7.28;;;;;;;5.93;71.57;97194.56;4333154;33;20316;-70
2022/04/02 10:21:24;;;;;;;10.48;6.40;;;;;;;5.91;71.20;97202.50;4332644;33;20087;-70
2022/04/02 10:24:05;;;;;;;12.55;7.05;;;;;;;6.06;70.01;97204.63;4333089;33;20124;-70
2022/04/02 10:26:38;;;;;;;12.25;6.90;;;;;;;5.67;71.77;97209.06;4332994;33;20109;-70
2022/04/02 10:29:12;;;;;;;14.10;7.45;;;;;;;5.81;71.39;97206.94;4333081;33;20150;-70
2022/04/02 10:31:50;;;;;;;14.38;6.32;;;;;;;5.64;72.11;97196.34;4333041;33;20092;-70
2022/04/02 10:34:17;;;;;;;10.50;7.00;;;;;;;5.59;71.92;97197.78;4332947;33;20159;-70
2022/04/02 10:36:50;;;;;;;10.75;6.37;;;;;;;5.66;71.21;97184.06;4332873;33;20548;-70
2022/04/02 10:39:21;;;;;;;10.65;6.57;;;;;;;5.66;71.91;97193.59;4333025;33;20582;-70
2022/04/02 10:41:56;;;;;;;10.55;6.62;;;;;;;5.74;72.21;97198.91;4333088;33;20129;-70
2022/04/02 10:45:00;;;;;;;11.57;6.55;;;;;;;5.54;70.97;97200.81;4332842;33;20115;-70
2022/04/02 10:47:28;;;;;;;12.35;7.15;;;;;;;5.57;72.32;97197.06;4296247;33;20126;-70
2022/04/02 10:50:04;;;;;;;10.32;6.62;;;;;;;5.84;71.49;97206.63;4318178;33;20719;-71
2022/04/02 10:52:32;;;;;;;13.20;6.65;;;;;;;5.66;70.40;97209.19;4318138;33;20092;-70
2022/04/02 10:55:00;;;;;;;13.80;6.47;;;;;;;5.59;71.94;97214.16;4318168;33;20120;-70
2022/04/02 10:57:29;;;;;;;12.37;6.65;;;;;;;5.57;71.48;97221.28;4318188;33;20111;-70
2022/04/02 11:00:03;;;;;;;13.07;7.55;;;;;;;5.62;72.22;97220.88;4318237;33;20466;-70
2022/04/02 11:02:50;;;;;;;11.45;6.32;;;;;;;5.45;72.95;97217.22;4318111;33;20100;-70
2022/04/02 11:05:17;;;;;;;10.15;6.10;;;;;;;5.56;73.48;97224.03;4318205;33;20101;-70
2022/04/02 11:07:49;;;;;;;9.55;5.62;;;;;;;5.58;72.47;97227.28;4318024;33;20489;-70
2022/04/02 11:10:18;;;;;;;13.43;6.37;;;;;;;5.32;72.39;97228.75;4318184;33;20111;-70
2022/04/02 11:12:48;;;;;;;12.18;6.68;;;;;;;5.14;72.09;97231.25;4318035;33;20252;-70
2022/04/02 11:15:23;;;;;;;9.38;5.55;;;;;;;5.22;72.53;97237.53;4318111;33;20107;-71
2022/04/02 11:17:55;;;;;;;12.18;6.82;;;;;;;5.51;72.66;97233.06;4318169;33;20485;-70
2022/04/02 11:20:27;;;;;;;9.13;5.57;;;;;;;5.43;73.40;97230.34;4320497;32;20084;-70
2022/04/02 11:22:56;;;;;;;11.82;5.70;;;;;;;5.50;71.35;97231.41;4379392;32;20162;-70
2022/04/02 11:25:49;;;;;;;12.25;6.62;;;;;;;4.96;72.92;97230.34;4379165;32;20172;-70
2022/04/02 11:28:21;;;;;;;8.63;5.47;;;;;;;5.28;73.77;97234.37;4374357;32;20099;-70
2022/04/02 11:30:51;;;;;;;12.68;7.07;;;;;;;5.22;72.93;97232.34;4379450;32;20105;-70
2022/04/02 11:33:19;;;;;;;12.37;6.43;;;;;;;5.23;73.70;97239.19;4378460;32;20095;-70
2022/04/02 11:35:57;;;;;;;9.80;6.30;;;;;;;5.33;73.09;97225.19;4379209;32;20163;-70
2022/04/02 11:39:00;;;;;;;10.25;6.22;;;;;;;5.31;73.85;97234.09;4379286;32;20110;-70
2022/04/02 11:41:31;;;;;;;11.90;6.05;;;;;;;5.32;73.11;97244.34;4368323;32;20095;-70
2022/04/02 11:44:07;;;;;;;11.95;5.65;;;;;;;5.58;71.82;97238.50;4365568;32;20550;-70